createdAt,value
2023-04-05T00:00:20.822Z,5.63
2023-04-05T00:02:49.312Z,4.83
2023-04-05T00:05:29.340Z,4.83
2023-04-05T00:07:57.845Z,5.37
2023-04-05T00:10:25.993Z,4.80
2023-04-05T00:12:54.273Z,5.73
2023-04-05T00:15:24.407Z,6.10
2023-04-05T00:17:54.198Z,4.20
2023-04-05T00:20:22.562Z,4.17
2023-04-05T00:22:51.008Z,4.70
2023-04-05T00:25:19.391Z,4.40
2023-04-05T00:27:47.560Z,5.40
2023-04-05T00:30:20.799Z,3.67
2023-04-05T00:32:50.884Z,4.83
2023-04-05T00:35:19.102Z,3.60
2023-04-05T00:37:47.070Z,4.13
2023-04-05T00:40:15.301Z,4.13
2023-04-05T00:42:43.142Z,4.07
2023-04-05T00:45:11.709Z,4.00
2023-04-05T00:47:40.055Z,3.93
2023-04-05T00:50:12.358Z,4.53
2023-04-05T00:52:41.789Z,4.07
2023-04-05T00:55:12.004Z,4.40
2023-04-05T00:57:40.246Z,3.97
2023-04-05T01:00:12.431Z,3.60
2023-04-05T01:02:46.355Z,3.60
2023-04-05T01:05:30.238Z,3.23
2023-04-05T01:08:06.914Z,3.30
2023-04-05T01:10:39.937Z,3.30
2023-04-05T01:13:08.857Z,3.00
2023-04-05T01:15:36.765Z,3.00
2023-04-05T01:18:06.113Z,3.03
2023-04-05T01:20:40.777Z,2.73
2023-04-05T01:23:38.657Z,2.83
2023-04-05T01:26:57.753Z,2.73
2023-04-05T01:29:50.582Z,2.73
2023-04-05T01:32:45.197Z,2.40
2023-04-05T01:35:20.329Z,1.90
2023-04-05T01:37:54.521Z,2.70
2023-04-05T01:40:23.715Z,1.60
2023-04-05T01:42:51.685Z,1.80
2023-04-05T01:45:21.034Z,2.20
2023-04-05T01:47:49.112Z,2.40
2023-04-05T01:50:17.176Z,2.10
2023-04-05T01:52:45.109Z,2.50
2023-04-05T01:55:13.022Z,2.10
2023-04-05T01:57:40.978Z,2.20
2023-04-05T02:00:10.715Z,2.13
2023-04-05T02:02:40.025Z,2.23
2023-04-05T02:05:08.921Z,2.70
2023-04-05T02:07:36.906Z,1.90
2023-04-05T02:10:05.269Z,2.23
2023-04-05T02:12:33.288Z,2.57
2023-04-05T02:15:01.864Z,2.40
2023-04-05T02:17:34.027Z,2.50
2023-04-05T02:20:05.695Z,2.80
2023-04-05T02:22:33.603Z,3.20
2023-04-05T02:25:01.568Z,2.80
2023-04-05T02:27:29.488Z,2.70
2023-04-05T02:29:57.790Z,2.50
2023-04-05T02:32:26.469Z,2.50
2023-04-05T02:34:54.542Z,2.27
2023-04-05T02:37:25.895Z,2.43
2023-04-05T02:39:54.179Z,2.90
2023-04-05T02:42:22.170Z,2.27
2023-04-05T02:44:50.541Z,2.70
2023-04-05T02:47:21.657Z,2.67
2023-04-05T02:49:49.994Z,2.60
2023-04-05T02:52:18.265Z,2.80
2023-04-05T02:54:47.769Z,2.50
2023-04-05T02:57:16.294Z,2.90
2023-04-05T02:59:44.205Z,2.83
2023-04-05T03:02:12.107Z,2.50
2023-04-05T03:04:41.049Z,2.90
2023-04-05T03:07:10.553Z,2.40
2023-04-05T03:09:38.651Z,2.50
2023-04-05T03:12:08.166Z,2.20
2023-04-05T03:14:36.422Z,2.77
2023-04-05T03:17:04.412Z,2.90
2023-04-05T03:19:32.929Z,2.37
2023-04-05T03:22:00.903Z,2.33
2023-04-05T03:24:28.775Z,2.00
2023-04-05T03:26:56.759Z,2.43
2023-04-05T03:29:26.211Z,3.10
2023-04-05T03:31:54.283Z,2.70
2023-04-05T03:34:23.153Z,2.30
2023-04-05T03:36:51.062Z,3.10
2023-04-05T03:39:18.985Z,2.23
2023-04-05T03:41:46.945Z,2.97
2023-04-05T03:44:14.830Z,2.67
2023-04-05T03:46:44.164Z,2.03
2023-04-05T03:49:12.072Z,2.57
2023-04-05T03:51:39.978Z,2.47
2023-04-05T03:54:07.851Z,2.70
2023-04-05T03:56:35.737Z,2.33
2023-04-05T03:59:03.774Z,3.20
2023-04-05T04:01:31.844Z,2.93
2023-04-05T04:04:01.491Z,2.93
2023-04-05T04:06:30.863Z,3.13
2023-04-05T04:08:59.028Z,3.33
2023-04-05T04:11:27.304Z,2.67
2023-04-05T04:13:55.322Z,2.10
2023-04-05T04:16:23.405Z,3.30
2023-04-05T04:18:54.241Z,2.60
2023-04-05T04:21:25.070Z,2.93
2023-04-05T04:23:53.619Z,2.87
2023-04-05T04:26:29.238Z,3.40
2023-04-05T04:28:57.822Z,3.40
2023-04-05T04:31:25.971Z,2.83
2023-04-05T04:33:55.497Z,2.57
2023-04-05T04:36:34.702Z,2.63
2023-04-05T04:39:05.478Z,2.57
2023-04-05T04:41:38.817Z,2.70
2023-04-05T04:44:06.932Z,2.70
2023-04-05T04:46:42.855Z,2.77
2023-04-05T04:49:11.258Z,2.90
2023-04-05T04:51:40.657Z,2.60
2023-04-05T04:54:08.712Z,2.67
2023-04-05T04:56:36.742Z,3.00
2023-04-05T04:59:04.729Z,2.57
2023-04-05T05:01:34.250Z,2.03
2023-04-05T05:04:04.170Z,2.10
2023-04-05T05:06:32.196Z,2.40
2023-04-05T05:09:01.996Z,1.87
2023-04-05T05:11:30.098Z,1.70
2023-04-05T05:13:58.070Z,1.93
2023-04-05T05:16:26.916Z,1.90
2023-04-05T05:18:55.451Z,1.50
2023-04-05T05:21:23.357Z,1.90
2023-04-05T05:23:51.686Z,1.80
2023-04-05T05:26:21.637Z,1.33
2023-04-05T05:28:50.076Z,1.00
2023-04-05T05:31:19.548Z,1.00
2023-04-05T05:33:50.068Z,1.17
2023-04-05T05:36:19.967Z,1.27
2023-04-05T05:38:49.170Z,1.40
2023-04-05T05:41:17.149Z,1.20
2023-04-05T05:43:46.511Z,1.40
2023-04-05T05:46:14.700Z,1.10
2023-04-05T05:48:43.155Z,1.63
2023-04-05T05:51:11.123Z,3.77
2023-04-05T05:53:39.992Z,1.90
2023-04-05T05:56:08.319Z,1.77
2023-04-05T05:58:36.838Z,3.13
2023-04-05T06:01:07.616Z,2.10
2023-04-05T06:03:35.838Z,1.70
2023-04-05T06:06:06.188Z,2.10
2023-04-05T06:08:34.096Z,1.03
2023-04-05T06:11:02.133Z,3.03
2023-04-05T06:13:30.143Z,1.40
2023-04-05T06:15:58.117Z,1.50
2023-04-05T06:18:29.700Z,1.27
2023-04-05T06:20:58.142Z,3.17
2023-04-05T06:23:26.063Z,1.00
2023-04-05T06:25:54.070Z,1.43
2023-04-05T06:28:22.029Z,1.50
2023-04-05T06:30:49.911Z,1.20
2023-04-05T06:33:17.841Z,2.10
2023-04-05T06:35:48.119Z,1.20
2023-04-05T06:38:16.195Z,2.47
2023-04-05T06:40:44.411Z,1.60
2023-04-05T06:43:12.402Z,2.30
2023-04-05T06:45:40.373Z,3.27
2023-04-05T06:48:09.217Z,1.50
2023-04-05T06:50:37.117Z,1.60
2023-04-05T06:53:07.164Z,1.20
2023-04-05T06:55:35.153Z,1.10
2023-04-05T06:58:03.063Z,1.00
2023-04-05T07:00:30.953Z,0.90
2023-04-05T07:02:58.973Z,1.83
2023-04-05T07:05:27.498Z,1.20
2023-04-05T07:07:55.476Z,1.13
2023-04-05T07:10:24.809Z,0.80
2023-04-05T07:12:52.971Z,0.90
2023-04-05T07:15:21.095Z,1.00
2023-04-05T07:17:49.076Z,0.80
2023-04-05T07:20:17.394Z,1.13
2023-04-05T07:22:46.543Z,1.13
2023-04-05T07:25:14.482Z,1.37
2023-04-05T07:27:45.011Z,0.83
2023-04-05T07:30:14.376Z,0.90
2023-04-05T07:32:42.526Z,1.10
2023-04-05T07:35:11.127Z,0.93
2023-04-05T07:37:39.313Z,1.27
2023-04-05T07:40:08.681Z,1.57
2023-04-05T07:42:36.692Z,1.73
2023-04-05T07:45:07.711Z,2.43
2023-04-05T07:47:36.328Z,1.50
2023-04-05T07:50:04.723Z,1.40
2023-04-05T07:52:32.711Z,1.50
2023-04-05T07:55:00.715Z,2.57
2023-04-05T07:57:28.719Z,1.10
2023-04-05T07:59:56.833Z,1.37
2023-04-05T08:02:26.136Z,1.40
2023-04-05T08:04:54.197Z,0.63
2023-04-05T08:07:22.207Z,0.87
2023-04-05T08:09:50.147Z,1.20
2023-04-05T08:12:18.188Z,0.73
2023-04-05T08:14:46.214Z,0.90
2023-04-05T08:17:14.847Z,1.83
2023-04-05T08:19:44.303Z,1.50
2023-04-05T08:22:12.902Z,1.30
2023-04-05T08:24:40.895Z,1.30
2023-04-05T08:27:08.863Z,1.40
2023-04-05T08:29:37.159Z,1.30
2023-04-05T08:32:05.451Z,1.30
2023-04-05T08:34:34.725Z,0.77
2023-04-05T08:37:04.021Z,1.17
2023-04-05T08:39:34.285Z,1.83
2023-04-05T08:42:18.744Z,1.40
2023-04-05T08:44:48.140Z,1.10
2023-04-05T08:47:21.078Z,1.40
2023-04-05T08:49:49.070Z,0.90
2023-04-05T08:52:18.510Z,1.10
2023-04-05T08:54:49.620Z,2.50
2023-04-05T08:57:20.216Z,2.20
2023-04-05T08:59:48.994Z,1.23
2023-04-05T09:02:21.997Z,1.10
2023-04-05T09:04:50.635Z,3.23
2023-04-05T09:07:21.619Z,1.23
2023-04-05T09:09:57.193Z,1.40
2023-04-05T09:12:27.035Z,1.80
2023-04-05T09:14:55.424Z,1.60
2023-04-05T09:17:24.399Z,2.10
2023-04-05T09:19:56.476Z,1.70
2023-04-05T09:22:25.844Z,1.40
2023-04-05T09:24:53.840Z,1.67
2023-04-05T09:27:22.282Z,4.00
2023-04-05T09:29:51.471Z,1.83
2023-04-05T09:32:21.465Z,1.40
2023-04-05T09:34:52.495Z,1.30
2023-04-05T09:37:22.813Z,1.47
2023-04-05T09:40:02.934Z,1.20
2023-04-05T09:42:35.419Z,1.30
2023-04-05T09:45:05.265Z,1.13
2023-04-05T09:47:35.332Z,1.60
2023-04-05T09:50:06.532Z,1.30
2023-04-05T09:52:35.762Z,1.63
2023-04-05T09:55:06.899Z,1.77
2023-04-05T09:57:36.025Z,1.17
2023-04-05T10:00:05.959Z,1.37
2023-04-05T10:02:38.016Z,1.03
2023-04-05T10:05:08.090Z,2.27
2023-04-05T10:07:36.976Z,2.97
2023-04-05T10:10:07.706Z,1.50
2023-04-05T10:12:39.843Z,2.20
2023-04-05T10:15:10.832Z,2.30
2023-04-05T10:17:49.301Z,1.87
2023-04-05T10:20:19.718Z,2.27
2023-04-05T10:23:09.269Z,1.53
2023-04-05T10:25:51.633Z,2.17
2023-04-05T10:28:30.262Z,1.50
2023-04-05T10:31:09.455Z,1.53
2023-04-05T10:33:45.463Z,1.80
2023-04-05T10:36:24.609Z,1.70
2023-04-05T10:39:04.183Z,1.87
2023-04-05T10:41:36.775Z,2.40
2023-04-05T10:44:18.548Z,2.50
2023-04-05T10:46:54.913Z,1.77
2023-04-05T10:49:30.395Z,2.60
2023-04-05T10:51:59.777Z,2.17
2023-04-05T10:54:28.463Z,1.90
2023-04-05T10:56:58.631Z,1.87
2023-04-05T10:59:27.803Z,1.43
2023-04-05T11:01:56.673Z,1.80
2023-04-05T11:04:25.209Z,2.30
2023-04-05T11:07:14.808Z,2.00
2023-04-05T11:09:53.584Z,2.20
2023-04-05T11:13:02.415Z,2.43
2023-04-05T11:15:31.764Z,2.70
2023-04-05T11:18:04.618Z,1.77
2023-04-05T11:20:42.996Z,2.20
2023-04-05T11:23:11.607Z,2.00
2023-04-05T11:25:41.520Z,2.03
2023-04-05T11:28:11.717Z,2.13
2023-04-05T11:30:51.530Z,2.10
2023-04-05T11:33:57.652Z,2.17
2023-04-05T11:36:42.000Z,1.77
2023-04-05T11:39:29.047Z,2.40
2023-04-05T11:42:03.082Z,1.87
2023-04-05T11:44:42.053Z,2.30
2023-04-05T11:47:11.469Z,2.33
2023-04-05T11:49:40.247Z,2.80
2023-04-05T11:52:12.817Z,2.10
2023-04-05T11:54:46.114Z,2.00
2023-04-05T11:57:16.735Z,2.30
2023-04-05T11:59:46.598Z,2.20
2023-04-05T12:02:14.540Z,2.40
2023-04-05T12:04:42.556Z,2.50
2023-04-05T12:07:15.852Z,2.43
2023-04-05T12:10:03.883Z,2.90
2023-04-05T12:12:36.593Z,2.23
2023-04-05T12:15:08.599Z,2.20
2023-04-05T12:17:40.854Z,1.93
2023-04-05T12:20:10.135Z,2.40
2023-04-05T12:22:39.077Z,2.30
2023-04-05T12:25:08.582Z,2.77
2023-04-05T12:27:36.915Z,2.37
2023-04-05T12:30:15.936Z,2.77
2023-04-05T12:32:48.543Z,2.30
2023-04-05T12:35:21.906Z,2.77
2023-04-05T12:37:52.466Z,3.20
2023-04-05T12:40:24.827Z,2.50
2023-04-05T12:42:53.405Z,3.00
2023-04-05T12:45:24.922Z,3.00
2023-04-05T12:47:54.290Z,2.27
2023-04-05T12:50:28.955Z,2.87
2023-04-05T12:52:58.609Z,2.73
2023-04-05T12:55:28.130Z,2.93
2023-04-05T12:57:59.494Z,3.13
2023-04-05T13:00:30.928Z,3.23
2023-04-05T13:03:00.888Z,2.70
2023-04-05T13:05:30.448Z,2.40
2023-04-05T13:07:58.540Z,2.97
2023-04-05T13:10:27.584Z,2.53
2023-04-05T13:12:55.750Z,2.20
2023-04-05T13:15:23.942Z,3.10
2023-04-05T13:17:55.032Z,3.00
2023-04-05T13:20:23.133Z,2.63
2023-04-05T13:22:51.549Z,2.43
2023-04-05T13:25:19.629Z,2.83
2023-04-05T13:27:47.650Z,2.23
2023-04-05T13:30:18.384Z,2.50
2023-04-05T13:32:46.582Z,2.73
2023-04-05T13:35:16.581Z,3.10
2023-04-05T13:37:44.482Z,3.00
2023-04-05T13:40:12.864Z,2.80
2023-04-05T13:42:40.826Z,2.87
2023-04-05T13:45:09.379Z,3.20
2023-04-05T13:47:37.415Z,3.07
2023-04-05T13:50:06.997Z,3.17
2023-04-05T13:52:37.644Z,3.00
2023-04-05T13:55:06.985Z,3.47
2023-04-05T13:57:34.974Z,3.20
2023-04-05T14:00:03.221Z,4.20
2023-04-05T14:02:32.005Z,2.97
2023-04-05T14:05:00.145Z,3.57
2023-04-05T14:07:28.670Z,3.00
2023-04-05T14:09:58.704Z,3.40
2023-04-05T14:12:26.894Z,2.67
2023-04-05T14:14:55.266Z,2.97
2023-04-05T14:17:23.294Z,2.60
2023-04-05T14:19:51.282Z,2.87
2023-04-05T14:22:19.378Z,3.03
2023-04-05T14:24:48.730Z,2.70
2023-04-05T14:27:18.422Z,2.90
2023-04-05T14:29:46.723Z,2.80
2023-04-05T14:32:14.741Z,2.47
2023-04-05T14:34:42.836Z,2.83
2023-04-05T14:37:11.011Z,2.80
2023-04-05T14:39:38.991Z,3.17
2023-04-05T14:42:07.498Z,3.30
2023-04-05T14:44:37.672Z,3.90
2023-04-05T14:47:05.759Z,4.00
2023-04-05T14:49:33.668Z,3.80
2023-04-05T14:52:02.511Z,3.63
2023-04-05T14:54:30.460Z,3.50
2023-04-05T14:56:58.612Z,3.90
2023-04-05T14:59:26.619Z,3.97
2023-04-05T15:01:56.488Z,3.47
2023-04-05T15:04:24.572Z,3.33
2023-04-05T15:06:52.561Z,3.60
2023-04-05T15:09:20.441Z,4.10
2023-04-05T15:11:48.424Z,3.73
2023-04-05T15:14:24.819Z,3.80
2023-04-05T15:17:01.385Z,4.00
2023-04-05T15:19:30.759Z,3.87
2023-04-05T15:21:58.799Z,4.00
2023-04-05T15:24:26.924Z,4.23
2023-04-05T15:26:58.544Z,5.00
2023-04-05T15:29:26.478Z,4.50
2023-04-05T15:32:13.402Z,4.37
2023-04-05T15:34:41.911Z,5.43
2023-04-05T15:37:10.274Z,6.17
2023-04-05T15:39:38.430Z,3.90
2023-04-05T15:42:07.078Z,4.90
2023-04-05T15:44:35.107Z,4.47
2023-04-05T15:47:04.437Z,4.53
2023-04-05T15:49:32.329Z,4.43
2023-04-05T15:52:00.676Z,5.43
2023-04-05T15:54:28.625Z,4.73
2023-04-05T15:56:56.736Z,4.73
2023-04-05T15:59:26.134Z,3.27
2023-04-05T16:01:54.170Z,4.57
2023-04-05T16:04:24.660Z,4.27
2023-04-05T16:06:52.569Z,4.40
2023-04-05T16:09:21.939Z,5.10
2023-04-05T16:11:50.089Z,5.37
2023-04-05T16:14:18.059Z,4.10
2023-04-05T16:16:53.776Z,4.50
2023-04-05T16:19:23.713Z,4.33
2023-04-05T16:21:52.928Z,3.20
2023-04-05T16:24:21.207Z,3.70
2023-04-05T16:26:49.611Z,4.70
2023-04-05T16:29:17.806Z,4.30
2023-04-05T16:31:47.528Z,3.60
2023-04-05T16:34:16.297Z,3.90
2023-04-05T16:36:45.744Z,4.23
2023-04-05T16:39:13.691Z,3.37
2023-04-05T16:41:41.663Z,4.63
2023-04-05T16:44:10.388Z,4.53
2023-04-05T16:46:38.478Z,4.20
2023-04-05T16:49:06.413Z,4.10
2023-04-05T16:51:36.569Z,4.17
2023-04-05T16:54:06.201Z,3.23
2023-04-05T16:56:34.245Z,4.40
2023-04-05T16:59:04.947Z,3.63
2023-04-05T17:01:34.786Z,5.20
2023-04-05T17:04:02.885Z,4.20
2023-04-05T17:06:31.972Z,5.07
2023-04-05T17:08:59.961Z,3.67
2023-04-05T17:11:29.364Z,5.00
2023-04-05T17:14:01.568Z,5.17
2023-04-05T17:16:29.585Z,5.60
2023-04-05T17:18:57.585Z,4.00
2023-04-05T17:21:25.961Z,4.90
2023-04-05T17:23:53.926Z,5.00
2023-04-05T17:26:23.269Z,6.17
2023-04-05T17:28:52.655Z,4.70
2023-04-05T17:31:21.044Z,5.10
2023-04-05T17:33:49.572Z,5.60
2023-04-05T17:36:17.849Z,5.03
2023-04-05T17:38:45.881Z,4.90
2023-04-05T17:41:14.170Z,6.00
2023-04-05T17:43:44.533Z,6.33
2023-04-05T17:46:27.295Z,4.90
2023-04-05T17:48:58.693Z,5.80
2023-04-05T17:51:27.416Z,6.10
2023-04-05T17:53:55.633Z,6.40
2023-04-05T17:56:24.246Z,6.00
2023-04-05T17:58:52.568Z,5.40
2023-04-05T18:01:22.337Z,5.77
2023-04-05T18:03:51.280Z,6.30
2023-04-05T18:06:20.450Z,5.03
2023-04-05T18:08:48.831Z,4.37
2023-04-05T18:11:17.092Z,4.87
2023-04-05T18:13:45.079Z,5.67
2023-04-05T18:16:13.689Z,5.30
2023-04-05T18:18:43.378Z,5.50
2023-04-05T18:21:11.341Z,5.53
2023-04-05T18:23:40.311Z,4.97
2023-04-05T18:26:08.699Z,5.20
2023-04-05T18:28:36.767Z,5.27
2023-04-05T18:31:04.877Z,5.13
2023-04-05T18:33:37.861Z,4.87
2023-04-05T18:36:07.839Z,5.07
2023-04-05T18:38:35.913Z,4.17
2023-04-05T18:41:04.733Z,3.93
2023-04-05T18:43:32.906Z,4.90
2023-04-05T18:46:01.089Z,4.77
2023-04-05T18:48:29.437Z,4.20
2023-04-05T18:51:04.794Z,5.90
2023-04-05T18:53:34.956Z,4.93
2023-04-05T18:56:03.370Z,4.50
2023-04-05T18:58:33.720Z,4.63
2023-04-05T19:01:06.824Z,3.90
2023-04-05T19:03:39.785Z,5.13
2023-04-05T19:06:09.924Z,4.80
2023-04-05T19:08:39.778Z,3.67
2023-04-05T19:11:13.924Z,4.63
2023-04-05T19:13:42.700Z,4.87
2023-04-05T19:16:12.975Z,5.50
2023-04-05T19:18:40.942Z,4.03
2023-04-05T19:21:09.492Z,4.73
2023-04-05T19:23:38.720Z,5.53
2023-04-05T19:26:08.108Z,4.80
2023-04-05T19:28:36.318Z,4.33
2023-04-05T19:31:04.376Z,4.97
2023-04-05T19:33:36.154Z,4.63
2023-04-05T19:36:04.877Z,5.13
2023-04-05T19:38:33.012Z,5.60
2023-04-05T19:41:01.340Z,4.93
2023-04-05T19:43:31.902Z,4.90
2023-04-05T19:46:01.569Z,5.13
2023-04-05T19:48:37.668Z,11.47
2023-04-05T19:51:07.349Z,9.00
2023-04-05T19:53:48.031Z,5.87
2023-04-05T19:56:20.351Z,5.53
2023-04-05T19:58:51.318Z,4.13
2023-04-05T20:01:30.808Z,4.80
2023-04-05T20:04:01.438Z,5.17
2023-04-05T20:06:33.558Z,5.23
2023-04-05T20:09:06.046Z,6.30
2023-04-05T20:11:34.877Z,5.70
2023-04-05T20:14:06.904Z,5.97
2023-04-05T20:16:37.727Z,5.90
2023-04-05T20:19:08.172Z,4.90
2023-04-05T20:21:37.773Z,6.07
2023-04-05T20:24:09.921Z,5.50
2023-04-05T20:26:37.893Z,4.87
2023-04-05T20:29:09.259Z,5.23
2023-04-05T20:31:40.119Z,5.13
2023-04-05T20:34:11.768Z,5.93
2023-04-05T20:36:48.741Z,4.03
2023-04-05T20:39:17.861Z,5.67
2023-04-05T20:41:46.243Z,4.33
2023-04-05T20:44:15.992Z,5.23
2023-04-05T20:46:44.017Z,4.30
2023-04-05T20:49:12.956Z,5.33
2023-04-05T20:51:47.011Z,3.90
2023-04-05T20:54:15.238Z,5.90
2023-04-05T20:56:44.123Z,5.93
2023-04-05T20:59:12.418Z,4.97
2023-04-05T21:01:43.040Z,5.33
2023-04-05T21:32:59.362Z,4.40
2023-04-05T21:35:28.781Z,3.83
2023-04-05T21:37:56.766Z,4.83
2023-04-05T21:40:24.960Z,4.97
2023-04-05T21:42:52.991Z,3.40
2023-04-05T21:45:20.945Z,4.17
2023-04-05T21:47:49.037Z,3.50
2023-04-05T21:50:17.147Z,3.93
2023-04-05T21:52:46.508Z,4.20
2023-04-05T21:55:14.803Z,2.70
2023-04-05T21:57:43.817Z,3.57
2023-04-05T22:00:12.552Z,3.70
2023-04-05T22:02:40.942Z,3.50
2023-04-05T22:05:09.992Z,3.00
2023-04-05T22:07:38.175Z,3.70
2023-04-05T22:10:10.406Z,3.03
2023-04-05T22:12:38.475Z,3.40
2023-04-05T22:15:08.531Z,3.50
2023-04-05T22:17:37.325Z,3.90
2023-04-05T22:20:06.195Z,3.13
2023-04-05T22:22:34.107Z,3.27
2023-04-05T22:25:02.072Z,3.57
2023-04-05T22:27:31.382Z,3.10
2023-04-05T22:30:00.255Z,3.43
2023-04-05T22:32:28.267Z,3.20
2023-04-05T22:34:56.720Z,3.50
2023-04-05T22:37:24.730Z,3.47
2023-04-05T22:39:52.742Z,2.77
2023-04-05T22:42:20.890Z,3.37
2023-04-05T22:44:50.208Z,3.37
2023-04-05T22:47:18.139Z,3.10
2023-04-05T22:49:46.061Z,3.60
2023-04-05T22:52:13.975Z,4.00
2023-04-05T22:54:41.963Z,3.57
2023-04-05T22:57:11.326Z,3.87
2023-04-05T22:59:39.843Z,3.67
2023-04-05T23:02:09.576Z,3.20
2023-04-05T23:04:37.566Z,3.67
2023-04-05T23:07:05.713Z,3.33
2023-04-05T23:09:33.678Z,3.70
2023-04-05T23:12:01.631Z,3.67
2023-04-05T23:14:29.559Z,4.43
2023-04-05T23:16:57.506Z,4.20
2023-04-05T23:19:27.066Z,4.27
2023-04-05T23:21:55.607Z,4.07
2023-04-05T23:24:23.568Z,4.53
2023-04-05T23:26:51.572Z,4.60
2023-04-05T23:29:19.716Z,4.43
2023-04-05T23:31:48.519Z,4.60
2023-04-05T23:34:16.929Z,4.73
2023-04-05T23:36:46.381Z,3.97
2023-04-05T23:39:14.456Z,3.70
2023-04-05T23:41:42.402Z,3.10
2023-04-05T23:44:10.493Z,4.27
2023-04-05T23:46:41.304Z,3.83
2023-04-05T23:49:09.488Z,4.20
2023-04-05T23:51:37.586Z,4.10
2023-04-05T23:54:06.967Z,3.20
2023-04-05T23:56:41.512Z,3.30
2023-04-05T23:59:09.695Z,4.23
